Le Raizet Airport, Guadeloupe

1:07 PM AST on August 30, 2016 (GMT -0400)
Le Raizet | | Change Station

Elev 26 ft 16.27 °N, 61.53 °W | Updated 7 minutes ago

Overcast
Overcast
90 °F
Feels Like 98 °F
N
10
Wind Variable Wind from East

Today
High -- | Low -- °F
--% Chance of Precip.
Yesterday
High -- | Low -- °F
Precip. -- in
Pressure 29.98 in
Visibility 6.2 miles
Clouds Mostly Cloudy 3500 ft
Mostly Cloudy 4100 ft
Overcast 5800 ft
Heat Index 98 °F
Dew Point 73 °F
Humidity 59%
Rainfall 0.00 in
Snow Depth Not available.
5:52 AM 6:20 PM
Waning Crescent, 3% visible
METAR TFFR 301700Z AUTO 09009KT 060V120 9999 BKN035 BKN041 OVC058 32/23 Q1015 TEMPO SHRA
Pressure 29.98 in
Visibility 6.2 miles
Clouds Mostly Cloudy 3500 ft
Mostly Cloudy 4100 ft
Overcast 5800 ft
Heat Index 98 °F
Dew Point 73 °F
Humidity 59%
Rainfall 0.00 in
Snow Depth Not available.
5:52 AM 6:20 PM
Waning Crescent, 3% visible
METAR TFFR 301700Z AUTO 09009KT 060V120 9999 BKN035 BKN041 OVC058 32/23 Q1015 TEMPO SHRA

10-Day Weather Forecast

No radar image for this location.
×

Almanac

Astronomy

Aug. 30, 2016 Rise Set
Actual Time
Civil Twilight
Nautical Twilight
Astronomical Twilight
Moon
Length of Visible Light
Length of Day
Tomorrow will be .
, % of the Moon is Illuminated

Today's Extremes

Country Highs Country Lows

Community

WunderPhotos

Upload Photos

1,935,845 photos uploaded!

WunderBlog® & News

Nearby

Air Quality

  Air Quality AQ Index Pollutant
Not available.

Snow Depth

Station Depth Elevation

Earthquake Activity

City Distance Mag. Time & Date
Minimum magnitude displayed is 2.5.

Coastal Water Temperatures

Place Temperature

Stations

Nearby Weather Stations

Station Location Temp. Windchill Dew Point Humidity Wind Precip. Elev Updated Type